Time;durP1;ratioP1;P1;durP2;ratioP2;P2;SDS_P1;SDS_P2;PMS_P1;PMS_P2;Temp;Humidity;BMP_temperature;BMP_pressure;BME280_temperature;BME280_humidity;BME280_pressure;Samples;Min_cycle;Max_cycle;Signal;HPM_P1;HPM_P2
2021/12/27 00:01:06;;;;;;;20.40;10.00;;;5.60;99.90;;;;;;5097705;28;20030;-83
2021/12/27 00:03:32;;;;;;;19.33;9.90;;;5.60;99.90;;;;;;5097839;28;20051;-83
2021/12/27 00:05:57;;;;;;;21.23;9.83;;;5.60;99.90;;;;;;5115560;28;20046;-82
2021/12/27 00:08:23;;;;;;;17.17;9.17;;;5.60;99.90;;;;;;5097888;28;20039;-83
2021/12/27 00:10:52;;;;;;;16.57;8.60;;;5.60;99.90;;;;;;5116280;28;20445;-83
2021/12/27 00:13:19;;;;;;;17.60;8.87;;;5.60;99.90;;;;;;5097772;28;20031;-83
2021/12/27 00:15:44;;;;;;;15.70;8.53;;;5.60;99.90;;;;;;5098255;28;20466;-83
2021/12/27 00:18:11;;;;;;;16.83;9.23;;;5.60;99.90;;;;;;5097270;28;20039;-83
2021/12/27 00:20:36;;;;;;;15.47;8.63;;;5.60;99.90;;;;;;5097841;28;20028;-83
2021/12/27 00:23:02;;;;;;;16.87;9.27;;;5.60;99.90;;;;;;5097136;28;20404;-83
2021/12/27 00:25:29;;;;;;;16.63;9.03;;;5.60;99.90;;;;;;5097608;28;20035;-81
2021/12/27 00:27:55;;;;;;;17.57;8.63;;;5.60;99.90;;;;;;5097708;28;20043;-83
2021/12/27 00:30:22;;;;;;;15.23;8.47;;;5.50;99.90;;;;;;5097840;28;20118;-83
2021/12/27 00:32:49;;;;;;;17.17;9.00;;;5.60;99.90;;;;;;5095891;28;20032;-82
2021/12/27 00:35:18;;;;;;;16.07;9.27;;;5.50;99.90;;;;;;5094897;28;20106;-83
2021/12/27 00:37:46;;;;;;;15.87;8.73;;;5.60;99.90;;;;;;5077383;28;20042;-83
2021/12/27 00:40:13;;;;;;;14.50;8.00;;;5.60;99.90;;;;;;5076989;28;20114;-83
2021/12/27 00:42:41;;;;;;;17.23;9.50;;;5.60;99.90;;;;;;5077105;28;20028;-83
2021/12/27 00:45:07;;;;;;;15.57;8.57;;;5.60;99.90;;;;;;5094502;28;20020;-83
2021/12/27 00:47:33;;;;;;;15.73;8.57;;;5.60;99.90;;;;;;5077029;28;20032;-83
2021/12/27 00:49:59;;;;;;;17.00;8.27;;;5.60;99.90;;;;;;5076837;28;20122;-82
2021/12/27 00:52:24;;;;;;;19.70;8.77;;;5.60;99.90;;;;;;5094832;28;20031;-83
2021/12/27 00:54:50;;;;;;;16.93;8.40;;;5.60;99.90;;;;;;5077159;28;20024;-83
2021/12/27 00:57:16;;;;;;;17.53;8.80;;;5.60;99.90;;;;;;5076068;28;20024;-82
2021/12/27 00:59:41;;;;;;;15.10;8.27;;;5.60;99.90;;;;;;5077200;28;20027;-83
2021/12/27 01:02:07;;;;;;;19.03;8.93;;;5.60;99.90;;;;;;5076366;28;20032;-83
2021/12/27 01:04:33;;;;;;;16.67;8.53;;;5.60;99.90;;;;;;5094402;28;20048;-83
2021/12/27 01:06:58;;;;;;;19.00;8.80;;;5.60;99.90;;;;;;5076186;28;20055;-83
2021/12/27 01:09:39;;;;;;;20.37;8.60;;;5.60;99.90;;;;;;5076743;28;20115;-83
2021/12/27 01:14:55;;;;;;;16.50;9.37;;;5.60;99.90;;;;;;5094322;28;20024;-84
2021/12/27 01:17:21;;;;;;;17.73;8.57;;;5.60;99.90;;;;;;5076135;28;20032;-83
2021/12/27 01:19:47;;;;;;;19.50;8.97;;;5.70;99.90;;;;;;5076604;28;20078;-83
2021/12/27 01:22:13;;;;;;;17.30;8.60;;;5.60;99.90;;;;;;5076151;28;20097;-82
2021/12/27 01:24:38;;;;;;;18.57;9.10;;;5.70;99.90;;;;;;5076056;28;20081;-83
2021/12/27 01:27:04;;;;;;;18.33;9.03;;;5.70;99.90;;;;;;5093794;28;20020;-83
2021/12/27 01:29:30;;;;;;;22.43;9.03;;;5.70;99.90;;;;;;5088929;28;20464;-83
2021/12/27 01:31:55;;;;;;;18.60;8.73;;;5.70;99.90;;;;;;5114397;28;20032;-82
2021/12/27 01:34:23;;;;;;;17.60;8.40;;;5.60;99.90;;;;;;5114015;28;20034;-83
2021/12/27 01:36:49;;;;;;;18.47;8.73;;;5.60;99.90;;;;;;5114502;28;20053;-83
2021/12/27 01:39:14;;;;;;;17.50;8.43;;;5.70;99.90;;;;;;5096465;28;20024;-82
2021/12/27 01:41:40;;;;;;;19.20;9.30;;;5.70;99.90;;;;;;5096037;28;20118;-83
2021/12/27 01:44:06;;;;;;;20.73;9.60;;;5.70;99.90;;;;;;5096199;28;20031;-83
2021/12/27 01:46:32;;;;;;;22.93;8.53;;;5.60;99.90;;;;;;5096600;28;20031;-83
2021/12/27 01:48:59;;;;;;;19.30;8.90;;;5.70;99.90;;;;;;5096392;28;20031;-83
2021/12/27 01:51:29;;;;;;;24.13;9.80;;;5.70;99.90;;;;;;5096395;28;20039;-83
2021/12/27 01:53:56;;;;;;;19.23;8.67;;;5.70;99.90;;;;;;5114206;28;20017;-83
2021/12/27 01:56:23;;;;;;;19.10;9.13;;;5.60;99.90;;;;;;5094861;28;20028;-83
2021/12/27 01:58:50;;;;;;;20.97;9.07;;;5.70;99.90;;;;;;5096288;28;20518;-83
2021/12/27 02:01:17;;;;;;;20.80;9.20;;;5.70;99.90;;;;;;5095645;28;20046;-82
2021/12/27 02:03:43;;;;;;;20.47;9.43;;;5.70;99.90;;;;;;5096135;28;20361;-83
2021/12/27 02:06:11;;;;;;;24.77;9.60;;;5.70;99.90;;;;;;5096016;28;20032;-83
2021/12/27 02:08:38;;;;;;;21.40;9.47;;;5.70;99.90;;;;;;5096365;28;20040;-83
2021/12/27 02:11:05;;;;;;;20.57;10.20;;;5.70;99.90;;;;;;5096007;28;20030;-82
2021/12/27 02:13:31;;;;;;;20.67;9.07;;;5.70;99.90;;;;;;5114355;28;20062;-83
2021/12/27 02:15:57;;;;;;;19.77;9.23;;;5.70;99.90;;;;;;5096181;28;20020;-83
2021/12/27 02:18:22;;;;;;;22.20;10.40;;;5.70;99.90;;;;;;5095893;28;20188;-83
2021/12/27 02:20:48;;;;;;;22.90;9.53;;;5.70;99.90;;;;;;5113755;28;20048;-82
2021/12/27 02:23:16;;;;;;;20.57;9.87;;;5.70;99.90;;;;;;5095792;28;20039;-83
2021/12/27 02:25:44;;;;;;;21.23;9.17;;;5.80;99.90;;;;;;5114204;28;20026;-83
2021/12/27 02:28:11;;;;;;;19.47;9.37;;;5.80;99.90;;;;;;5095776;28;20115;-83
2021/12/27 02:30:38;;;;;;;20.93;10.20;;;5.70;99.90;;;;;;5114352;28;20097;-83
2021/12/27 02:33:05;;;;;;;20.43;9.83;;;5.80;99.90;;;;;;5091592;28;20028;-82
2021/12/27 02:35:34;;;;;;;22.33;8.97;;;5.70;99.90;;;;;;5093700;28;20489;-83
2021/12/27 02:38:02;;;;;;;20.87;9.30;;;5.70;99.90;;;;;;5075860;28;20028;-83
2021/12/27 02:40:31;;;;;;;22.57;9.40;;;5.70;99.90;;;;;;5093276;28;20024;-83
2021/12/27 02:43:09;;;;;;;24.67;9.77;;;5.70;99.90;;;;;;5093597;28;20393;-83
2021/12/27 02:45:43;;;;;;;19.60;9.53;;;5.70;99.90;;;;;;5076048;28;20027;-83
2021/12/27 02:48:13;;;;;;;22.23;9.83;;;5.80;99.90;;;;;;5075146;28;20028;-82
2021/12/27 02:50:41;;;;;;;25.97;10.70;;;5.70;99.90;;;;;;5075785;28;20107;-83
2021/12/27 02:53:07;;;;;;;24.70;10.87;;;5.80;99.90;;;;;;5075404;28;20487;-82
2021/12/27 02:55:33;;;;;;;24.80;10.37;;;5.80;99.90;;;;;;5079548;28;20047;-83
2021/12/27 02:57:59;;;;;;;28.67;10.77;;;5.70;99.90;;;;;;5079355;28;20469;-82
2021/12/27 03:00:35;;;;;;;23.63;10.77;;;5.80;99.90;;;;;;5096409;28;20457;-83
2021/12/27 03:03:01;;;;;;;26.57;11.10;;;5.80;99.90;;;;;;5079067;28;20024;-83
2021/12/27 03:05:28;;;;;;;29.07;10.87;;;5.80;99.90;;;;;;5078411;28;20040;-83
2021/12/27 03:07:55;;;;;;;23.83;10.60;;;5.80;99.90;;;;;;5078891;28;20036;-83
2021/12/27 03:10:27;;;;;;;25.37;10.40;;;5.80;99.90;;;;;;5078577;28;20031;-83
2021/12/27 03:12:54;;;;;;;25.98;10.48;;;5.80;99.90;;;;;;5079162;28;20024;-83
2021/12/27 03:15:23;;;;;;;21.77;9.83;;;5.80;99.90;;;;;;5078418;28;20384;-83
2021/12/27 03:17:51;;;;;;;23.60;10.77;;;5.80;99.90;;;;;;5078930;28;20032;-83
2021/12/27 03:20:19;;;;;;;27.50;11.07;;;5.80;99.90;;;;;;5096117;28;20051;-83
2021/12/27 03:22:45;;;;;;;25.90;10.83;;;5.80;99.90;;;;;;5078379;28;20086;-83
2021/12/27 03:25:16;;;;;;;22.93;11.03;;;5.80;99.90;;;;;;5078314;28;20464;-83
2021/12/27 03:27:43;;;;;;;23.17;11.07;;;5.80;99.90;;;;;;5078518;28;20029;-83
2021/12/27 03:30:11;;;;;;;26.43;12.27;;;5.80;99.90;;;;;;5096150;28;20055;-82
2021/12/27 03:32:37;;;;;;;29.37;13.23;;;5.80;99.90;;;;;;5116512;28;20031;-83
2021/12/27 03:35:14;;;;;;;29.70;12.47;;;5.80;99.90;;;;;;5098727;28;20464;-84
2021/12/27 03:37:43;;;;;;;27.43;12.33;;;5.90;99.90;;;;;;5098888;28;20080;-83
2021/12/27 03:40:11;;;;;;;32.10;13.07;;;5.90;99.90;;;;;;5097857;28;20027;-83
2021/12/27 03:42:37;;;;;;;26.60;10.80;;;5.80;99.90;;;;;;5098485;28;20032;-83
2021/12/27 03:45:04;;;;;;;26.07;11.83;;;5.90;99.90;;;;;;5116629;28;20107;-83
2021/12/27 03:47:30;;;;;;;31.50;11.40;;;5.90;99.90;;;;;;5097641;28;20032;-84
2021/12/27 03:49:56;;;;;;;24.57;10.77;;;5.90;99.90;;;;;;5098705;28;20028;-83
2021/12/27 03:52:21;;;;;;;28.77;11.53;;;5.90;99.90;;;;;;5097994;28;20023;-83
2021/12/27 03:54:47;;;;;;;26.57;10.63;;;5.80;99.90;;;;;;5098664;28;20027;-83
2021/12/27 03:57:15;;;;;;;24.83;10.63;;;5.80;99.90;;;;;;5097980;28;20054;-82
2021/12/27 04:02:13;;;;;;;28.53;11.47;;;5.80;99.90;;;;;;5116060;28;20032;-83
2021/12/27 04:04:41;;;;;;;24.73;10.87;;;5.80;99.90;;;;;;5097577;28;20024;-82
2021/12/27 04:07:08;;;;;;;23.97;10.87;;;5.90;99.90;;;;;;5098029;28;20028;-83
2021/12/27 04:09:35;;;;;;;25.17;11.53;;;5.90;99.90;;;;;;5098246;28;20024;-82
2021/12/27 04:12:01;;;;;;;22.40;10.33;;;5.90;99.90;;;;;;5098014;28;20020;-83
2021/12/27 04:14:27;;;;;;;22.30;10.40;;;5.90;99.90;;;;;;5097480;28;20032;-83
2021/12/27 04:16:54;;;;;;;21.47;9.80;;;5.90;99.90;;;;;;5097975;28;20028;-83
2021/12/27 04:19:20;;;;;;;21.47;10.37;;;5.90;99.90;;;;;;5097361;28;20073;-83
2021/12/27 04:21:46;;;;;;;21.33;10.27;;;5.90;99.90;;;;;;5097446;28;20052;-83
2021/12/27 04:24:12;;;;;;;23.63;10.00;;;6.00;99.90;;;;;;5115302;28;20102;-82
2021/12/27 04:26:38;;;;;;;25.33;11.13;;;6.00;99.90;;;;;;5115830;28;20058;-83
2021/12/27 04:29:04;;;;;;;19.67;9.40;;;5.90;99.90;;;;;;5097542;28;20039;-83
2021/12/27 04:31:30;;;;;;;20.23;9.03;;;5.90;99.90;;;;;;5115084;28;20042;-82
2021/12/27 04:33:56;;;;;;;19.90;9.50;;;5.90;99.90;;;;;;5097684;28;20028;-83
2021/12/27 04:36:22;;;;;;;17.47;9.30;;;5.90;99.90;;;;;;5097115;28;20055;-83
2021/12/27 04:38:48;;;;;;;17.03;9.07;;;5.90;99.90;;;;;;5115481;28;20032;-83
2021/12/27 04:41:16;;;;;;;17.33;8.70;;;5.90;99.90;;;;;;5097168;28;20024;-83
2021/12/27 04:43:42;;;;;;;17.53;8.23;;;6.00;99.90;;;;;;5097411;28;20035;-83
2021/12/27 04:46:08;;;;;;;16.63;8.70;;;6.00;99.90;;;;;;5097461;28;20024;-83
2021/12/27 04:48:33;;;;;;;13.43;7.60;;;5.90;99.90;;;;;;5114871;28;20035;-83
2021/12/27 04:50:59;;;;;;;15.60;7.70;;;5.90;99.90;;;;;;5097388;28;20034;-83
2021/12/27 04:53:25;;;;;;;17.47;8.70;;;5.90;99.90;;;;;;5097003;28;20023;-83
2021/12/27 04:55:51;;;;;;;14.90;7.63;;;6.00;99.90;;;;;;5115103;28;20023;-83
2021/12/27 04:58:18;;;;;;;14.87;7.83;;;6.00;99.90;;;;;;5096715;28;20031;-83
2021/12/27 05:00:45;;;;;;;13.97;7.77;;;6.00;99.90;;;;;;5114999;28;20026;-83
2021/12/27 05:03:11;;;;;;;16.83;8.67;;;6.00;99.90;;;;;;5113823;28;20116;-82
2021/12/27 05:05:41;;;;;;;15.30;7.63;;;6.00;99.90;;;;;;5114884;28;20035;-82
2021/12/27 05:08:06;;;;;;;16.60;7.83;;;6.00;99.90;;;;;;5097034;28;20130;-83
2021/12/27 05:10:32;;;;;;;15.27;8.23;;;6.00;99.90;;;;;;5114615;28;20447;-83
2021/12/27 05:12:58;;;;;;;14.43;7.73;;;5.90;99.90;;;;;;5096929;28;20034;-83
2021/12/27 05:15:23;;;;;;;14.37;7.83;;;5.90;99.90;;;;;;5096111;28;20024;-83
2021/12/27 05:17:49;;;;;;;14.87;8.00;;;6.00;99.90;;;;;;5096182;28;20062;-84
2021/12/27 05:20:17;;;;;;;15.73;8.63;;;6.00;99.90;;;;;;5114291;28;20026;-83
2021/12/27 05:22:43;;;;;;;12.90;7.40;;;6.00;99.90;;;;;;5096638;28;20051;-81
2021/12/27 05:25:14;;;;;;;17.00;7.33;;;6.00;99.90;;;;;;5096887;28;20185;-83
2021/12/27 05:27:40;;;;;;;15.83;7.90;;;6.00;99.90;;;;;;5096582;28;20028;-83
2021/12/27 05:30:07;;;;;;;16.43;7.40;;;6.00;99.90;;;;;;5096805;28;20027;-83
2021/12/27 05:32:35;;;;;;;14.37;7.80;;;6.00;99.90;;;;;;5096210;28;20088;-83
2021/12/27 05:35:02;;;;;;;14.83;7.90;;;6.00;99.90;;;;;;5096616;28;20028;-83
2021/12/27 05:37:27;;;;;;;13.00;7.30;;;6.00;99.90;;;;;;5095832;28;20034;-83
2021/12/27 05:39:53;;;;;;;13.57;8.00;;;6.10;99.90;;;;;;5096787;28;20114;-83
2021/12/27 05:42:19;;;;;;;16.50;8.07;;;6.00;99.90;;;;;;5096105;28;20019;-83
2021/12/27 05:44:44;;;;;;;16.03;9.50;;;6.00;99.90;;;;;;5096198;28;20383;-83
2021/12/27 05:47:10;;;;;;;13.80;7.90;;;6.10;99.90;;;;;;5096522;28;20388;-83
2021/12/27 05:49:36;;;;;;;14.63;7.97;;;6.10;99.90;;;;;;5096046;28;20072;-83
2021/12/27 05:52:01;;;;;;;15.53;7.67;;;6.10;99.90;;;;;;5096458;28;20061;-83
2021/12/27 05:54:27;;;;;;;13.93;7.60;;;6.00;99.90;;;;;;5095973;28;20490;-83
2021/12/27 05:56:52;;;;;;;14.67;7.80;;;6.00;99.90;;;;;;5114172;28;20024;-83
2021/12/27 05:59:18;;;;;;;14.47;7.97;;;6.00;99.90;;;;;;5114035;28;20400;-83
2021/12/27 06:01:45;;;;;;;16.40;8.53;;;6.10;99.90;;;;;;5096269;28;20065;-83
2021/12/27 06:04:11;;;;;;;15.67;7.97;;;6.00;99.90;;;;;;5096360;28;20089;-83
2021/12/27 06:06:37;;;;;;;13.93;8.27;;;6.00;99.90;;;;;;5113621;28;20027;-83
2021/12/27 06:09:04;;;;;;;14.37;7.90;;;6.00;99.90;;;;;;5095703;28;20042;-83
2021/12/27 06:11:30;;;;;;;14.93;8.00;;;6.10;99.90;;;;;;5095439;28;20023;-83
2021/12/27 06:13:55;;;;;;;17.30;8.43;;;6.00;99.90;;;;;;5095991;28;20031;-83
2021/12/27 06:16:21;;;;;;;13.63;7.90;;;6.00;99.90;;;;;;5095809;28;20028;-83
2021/12/27 06:18:48;;;;;;;13.80;7.30;;;6.00;99.90;;;;;;5096433;28;20023;-83
2021/12/27 06:21:13;;;;;;;15.40;8.13;;;5.90;99.90;;;;;;5095889;28;20055;-83
2021/12/27 06:23:39;;;;;;;16.00;8.27;;;5.90;99.90;;;;;;5113585;28;20519;-83
2021/12/27 06:26:05;;;;;;;17.30;8.70;;;5.90;99.90;;;;;;5095975;28;20157;-83
2021/12/27 06:28:32;;;;;;;17.50;8.57;;;5.90;99.90;;;;;;5116007;28;20468;-83
2021/12/27 06:30:58;;;;;;;19.00;9.33;;;5.90;99.90;;;;;;5117897;28;20110;-83
2021/12/27 06:33:25;;;;;;;18.17;8.80;;;5.80;99.90;;;;;;5116929;28;20037;-83
2021/12/27 06:35:50;;;;;;;16.73;9.10;;;5.80;99.90;;;;;;5117876;28;20023;-82
2021/12/27 06:38:16;;;;;;;16.50;8.83;;;5.80;99.90;;;;;;5099957;28;20490;-83
2021/12/27 06:40:42;;;;;;;17.93;8.50;;;5.70;99.90;;;;;;5099730;28;20372;-83
2021/12/27 06:43:07;;;;;;;14.50;7.83;;;5.70;99.90;;;;;;5099706;28;20517;-83
2021/12/27 06:45:33;;;;;;;14.23;8.07;;;5.70;99.90;;;;;;5099475;28;20028;-83
2021/12/27 06:47:59;;;;;;;13.70;7.40;;;5.70;99.90;;;;;;5117573;28;20043;-83
2021/12/27 06:50:24;;;;;;;15.17;7.60;;;5.80;99.90;;;;;;5117028;28;20376;-83
2021/12/27 06:52:50;;;;;;;13.00;7.70;;;5.80;99.90;;;;;;5099612;28;20118;-83
2021/12/27 06:55:17;;;;;;;12.60;7.30;;;5.80;99.90;;;;;;5099530;28;20058;-84
2021/12/27 06:57:43;;;;;;;12.50;7.37;;;5.90;99.90;;;;;;5099758;28;20120;-82
2021/12/27 07:00:12;;;;;;;14.67;7.93;;;5.90;99.90;;;;;;5099567;28;20461;-84
2021/12/27 07:02:38;;;;;;;13.97;7.43;;;5.90;99.90;;;;;;5099006;28;20370;-82
2021/12/27 07:05:05;;;;;;;14.00;7.83;;;6.00;99.90;;;;;;5099387;28;20032;-83
2021/12/27 07:07:31;;;;;;;13.63;7.00;;;6.00;99.90;;;;;;5098704;28;20031;-83
2021/12/27 07:09:57;;;;;;;13.43;7.27;;;6.00;99.90;;;;;;5099293;28;20024;-83
2021/12/27 07:12:23;;;;;;;11.83;7.30;;;6.00;99.90;;;;;;5116812;28;20046;-83
2021/12/27 07:14:48;;;;;;;13.50;7.73;;;6.00;99.90;;;;;;5099109;28;20026;-83
2021/12/27 07:17:15;;;;;;;14.97;7.37;;;6.00;99.90;;;;;;5099229;28;20045;-83
2021/12/27 07:19:41;;;;;;;14.80;7.47;;;6.00;99.90;;;;;;5098510;28;20079;-83
2021/12/27 07:22:08;;;;;;;14.20;7.77;;;6.00;99.90;;;;;;5098742;28;20079;-83
2021/12/27 07:24:33;;;;;;;13.13;7.53;;;6.10;99.90;;;;;;5116620;28;20480;-83
2021/12/27 07:26:59;;;;;;;12.33;7.93;;;6.00;99.90;;;;;;5099065;28;20035;-83
2021/12/27 07:29:25;;;;;;;15.67;8.40;;;6.10;99.90;;;;;;5098233;28;20031;-83
2021/12/27 07:31:51;;;;;;;14.50;8.30;;;6.10;99.90;;;;;;5098788;28;20135;-83
2021/12/27 07:34:19;;;;;;;15.90;8.37;;;6.10;99.90;;;;;;5102330;28;20034;-83
2021/12/27 07:36:46;;;;;;;14.63;7.93;;;6.10;99.90;;;;;;5078323;28;20028;-83
2021/12/27 07:39:12;;;;;;;14.13;7.40;;;6.10;99.90;;;;;;5077984;28;20024;-83
2021/12/27 07:41:38;;;;;;;13.00;7.60;;;6.10;99.90;;;;;;5077915;28;20024;-83
2021/12/27 07:44:04;;;;;;;12.90;7.93;;;6.10;99.90;;;;;;5078406;28;20035;-84
2021/12/27 07:46:29;;;;;;;13.97;7.83;;;6.10;99.90;;;;;;5095512;28;20038;-83
2021/12/27 07:48:55;;;;;;;15.93;8.33;;;6.10;99.90;;;;;;5096233;28;20032;-83
2021/12/27 07:51:21;;;;;;;13.53;7.67;;;6.10;99.90;;;;;;5095557;28;20473;-83
2021/12/27 07:53:46;;;;;;;15.33;8.53;;;6.10;99.90;;;;;;5078052;28;20024;-83
2021/12/27 07:56:12;;;;;;;13.87;8.67;;;6.10;99.90;;;;;;5078219;28;20020;-83
2021/12/27 07:58:38;;;;;;;12.77;7.17;;;6.10;99.90;;;;;;5077546;28;20472;-83
2021/12/27 08:01:04;;;;;;;13.23;7.70;;;6.10;99.90;;;;;;5078017;28;20062;-83
2021/12/27 08:03:30;;;;;;;15.30;8.30;;;6.10;99.90;;;;;;5095390;28;20417;-83
2021/12/27 08:05:55;;;;;;;14.87;8.30;;;6.20;99.90;;;;;;5077969;28;20031;-83
2021/12/27 08:08:21;;;;;;;13.27;7.17;;;6.20;99.90;;;;;;5095675;28;20032;-84
2021/12/27 08:10:47;;;;;;;13.10;7.40;;;6.20;99.90;;;;;;5078150;28;20031;-83
2021/12/27 08:13:13;;;;;;;16.40;8.20;;;6.20;99.90;;;;;;5077954;28;20024;-83
2021/12/27 08:15:38;;;;;;;14.87;8.30;;;6.20;99.90;;;;;;5077209;28;20151;-83
2021/12/27 08:18:04;;;;;;;13.87;8.17;;;6.20;99.90;;;;;;5077656;28;20028;-84
2021/12/27 08:20:30;;;;;;;16.30;8.63;;;6.20;99.90;;;;;;5094926;28;20052;-83
2021/12/27 08:22:56;;;;;;;14.70;8.70;;;6.20;99.90;;;;;;5073889;28;20048;-83
2021/12/27 08:25:22;;;;;;;12.93;8.00;;;6.20;99.90;;;;;;5073829;28;20020;-83
2021/12/27 08:27:49;;;;;;;16.77;9.07;;;6.20;99.90;;;;;;5073817;28;20028;-83
2021/12/27 08:30:15;;;;;;;15.83;9.10;;;6.20;99.90;;;;;;5074073;28;20025;-83
2021/12/27 08:32:42;;;;;;;15.73;8.87;;;6.10;99.90;;;;;;5073738;28;20033;-82
2021/12/27 08:35:09;;;;;;;16.97;9.23;;;6.10;99.90;;;;;;5075239;28;20043;-83
2021/12/27 08:37:37;;;;;;;14.17;8.63;;;6.10;99.90;;;;;;5073309;28;20029;-83
2021/12/27 08:40:04;;;;;;;15.17;8.73;;;6.10;99.90;;;;;;5074924;28;20055;-83
2021/12/27 08:42:30;;;;;;;15.17;8.70;;;6.10;99.90;;;;;;5074132;28;20095;-83
2021/12/27 08:44:56;;;;;;;14.90;8.33;;;6.10;99.90;;;;;;5073527;28;20123;-83
2021/12/27 08:47:22;;;;;;;17.17;9.13;;;6.10;99.90;;;;;;5073303;28;20496;-83
2021/12/27 08:49:47;;;;;;;14.73;8.23;;;6.10;99.90;;;;;;5073251;28;20385;-83
2021/12/27 08:52:13;;;;;;;11.60;7.30;;;6.10;99.90;;;;;;5072718;28;20113;-83
2021/12/27 08:54:39;;;;;;;13.23;7.93;;;6.00;99.90;;;;;;5073240;28;20347;-83
2021/12/27 08:57:09;;;;;;;14.57;8.57;;;6.00;99.90;;;;;;5073465;28;20025;-85
2021/12/27 08:59:36;;;;;;;18.20;9.07;;;6.10;99.90;;;;;;5074299;28;20032;-84
2021/12/27 09:02:02;;;;;;;15.83;8.73;;;6.10;99.90;;;;;;5073688;28;20496;-84
2021/12/27 09:04:28;;;;;;;17.47;8.63;;;6.20;99.90;;;;;;5074012;28;20029;-84
2021/12/27 09:06:54;;;;;;;17.67;8.60;;;6.10;99.90;;;;;;5074323;28;20028;-84
2021/12/27 09:09:21;;;;;;;12.63;7.40;;;6.20;99.90;;;;;;5074080;28;20033;-84
2021/12/27 09:11:47;;;;;;;15.20;8.07;;;6.20;99.90;;;;;;5073837;28;20035;-84
2021/12/27 09:14:13;;;;;;;13.43;7.63;;;6.20;99.90;;;;;;5074250;28;20028;-83
2021/12/27 09:16:39;;;;;;;13.17;6.73;;;6.20;99.90;;;;;;5072871;28;20028;-82
2021/12/27 09:19:05;;;;;;;11.77;6.70;;;6.20;99.90;;;;;;5073517;28;20086;-83
2021/12/27 09:21:31;;;;;;;10.17;6.83;;;6.20;99.90;;;;;;5075711;28;20052;-82
2021/12/27 09:23:56;;;;;;;11.93;6.67;;;6.30;99.90;;;;;;5076702;28;20031;-83
2021/12/27 09:26:22;;;;;;;11.07;6.77;;;6.30;99.90;;;;;;5076510;28;20432;-84
2021/12/27 09:28:47;;;;;;;14.17;6.77;;;6.40;99.90;;;;;;5075742;28;20032;-83
2021/12/27 09:31:13;;;;;;;10.80;6.83;;;6.40;99.90;;;;;;5076178;28;20029;-83
2021/12/27 09:33:39;;;;;;;12.80;7.97;;;6.50;99.90;;;;;;5093689;28;20024;-83
2021/12/27 09:36:04;;;;;;;14.37;8.40;;;6.50;99.90;;;;;;5076409;28;20028;-83
2021/12/27 09:38:30;;;;;;;15.13;8.47;;;6.50;99.90;;;;;;5075600;28;20393;-83
2021/12/27 09:40:56;;;;;;;12.73;8.13;;;6.50;99.90;;;;;;5094317;28;20157;-83
2021/12/27 09:43:23;;;;;;;14.27;8.17;;;6.50;99.90;;;;;;5076363;28;20380;-83
2021/12/27 09:45:49;;;;;;;12.37;7.50;;;6.60;99.90;;;;;;5093535;28;20357;-83
2021/12/27 09:48:15;;;;;;;15.85;8.45;;;6.60;99.90;;;;;;5076124;28;20032;-83
2021/12/27 09:50:50;;;;;;;13.37;8.17;;;6.60;99.90;;;;;;5075772;28;20073;-83
2021/12/27 09:53:16;;;;;;;15.73;8.25;;;6.50;99.90;;;;;;5076140;28;20055;-84
2021/12/27 09:55:42;;;;;;;10.50;6.53;;;6.60;99.90;;;;;;5093507;28;20031;-86
2021/12/27 09:58:07;;;;;;;11.10;6.47;;;6.60;99.90;;;;;;5094041;28;20067;-84
2021/12/27 10:00:36;;;;;;;11.23;6.63;;;6.60;99.90;;;;;;5075617;28;20152;-83
2021/12/27 10:03:02;;;;;;;14.33;7.20;;;6.60;99.90;;;;;;5078197;28;20032;-85
2021/12/27 10:05:30;;;;;;;10.68;6.47;;;6.70;99.90;;;;;;5080273;28;20020;-85
2021/12/27 10:07:56;;;;;;;12.10;7.18;;;6.80;99.90;;;;;;5080383;28;20242;-84
2021/12/27 10:10:22;;;;;;;9.23;5.30;;;6.80;99.90;;;;;;5080053;28;20047;-84
2021/12/27 10:12:48;;;;;;;7.63;4.97;;;6.80;99.90;;;;;;5079503;28;20024;-84
2021/12/27 10:15:20;;;;;;;8.95;4.85;;;6.90;99.90;;;;;;5080057;28;20039;-84
2021/12/27 10:17:47;;;;;;;7.07;4.75;;;6.90;99.90;;;;;;5079727;28;20039;-84
2021/12/27 10:20:17;;;;;;;6.53;4.03;;;6.90;99.90;;;;;;5080046;28;20032;-84
2021/12/27 10:22:46;;;;;;;6.60;4.32;;;7.00;99.90;;;;;;5097388;28;20044;-83
2021/12/27 10:25:23;;;;;;;4.30;3.00;;;7.00;99.90;;;;;;5079800;28;20024;-84
2021/12/27 10:27:53;;;;;;;5.05;3.05;;;7.10;99.90;;;;;;5097313;28;20032;-84
2021/12/27 10:30:31;;;;;;;4.32;2.95;;;7.10;99.90;;;;;;5097619;28;20027;-84
2021/12/27 10:33:08;;;;;;;4.18;2.90;;;7.20;99.90;;;;;;5079657;28;20036;-84
2021/12/27 10:35:38;;;;;;;3.97;2.60;;;7.30;99.90;;;;;;5097274;28;20024;-84
2021/12/27 10:38:28;;;;;;;5.63;3.20;;;7.40;99.90;;;;;;5097421;28;20024;-84
2021/12/27 10:41:10;;;;;;;5.32;3.58;;;7.40;99.90;;;;;;5078895;28;20028;-84
2021/12/27 10:43:43;;;;;;;5.05;2.92;;;7.50;99.90;;;;;;5079044;28;20032;-84
2021/12/27 10:46:13;;;;;;;4.82;2.60;;;7.60;99.90;;;;;;5079357;28;20024;-84
2021/12/27 10:48:55;;;;;;;4.13;2.83;;;7.70;99.90;;;;;;5078848;28;20032;-84
2021/12/27 10:51:21;;;;;;;6.55;2.80;;;7.80;99.90;;;;;;5079333;28;20058;-84
2021/12/27 10:53:58;;;;;;;5.20;2.78;;;7.90;99.90;;;;;;5078924;28;20528;-83
2021/12/27 10:56:27;;;;;;;3.55;2.58;;;7.90;99.90;;;;;;5079191;28;20028;-84
2021/12/27 10:58:55;;;;;;;4.00;2.20;;;8.00;99.90;;;;;;5096656;28;20028;-84
2021/12/27 11:01:22;;;;;;;4.07;2.35;;;8.10;99.90;;;;;;5079022;28;20036;-84
2021/12/27 11:03:50;;;;;;;3.63;2.10;;;8.10;99.90;;;;;;5078920;28;20054;-84
2021/12/27 11:06:25;;;;;;;3.10;2.25;;;8.20;99.90;;;;;;5079150;28;20047;-84
2021/12/27 11:08:52;;;;;;;3.17;2.22;;;8.20;99.90;;;;;;5096160;28;20081;-84
2021/12/27 11:11:22;;;;;;;3.97;2.15;;;8.30;99.90;;;;;;5078886;28;20029;-84
2021/12/27 11:13:51;;;;;;;4.88;2.00;;;8.30;99.90;;;;;;5077936;28;20024;-84
2021/12/27 11:16:17;;;;;;;5.95;2.00;;;8.30;99.90;;;;;;5078737;28;20039;-84
2021/12/27 11:18:43;;;;;;;3.70;1.98;;;8.40;99.90;;;;;;5078418;28;20024;-83
2021/12/27 11:21:41;;;;;;;3.75;2.30;;;8.30;99.90;;;;;;5078614;28;20051;-83
2021/12/27 11:24:08;;;;;;;2.63;1.92;;;8.40;99.90;;;;;;5076802;28;20062;-83
2021/12/27 11:26:36;;;;;;;2.72;2.00;;;8.50;99.90;;;;;;5096197;28;20020;-82
2021/12/27 11:29:14;;;;;;;3.92;1.75;;;8.50;99.90;;;;;;5078585;28;20134;-85
2021/12/27 11:31:41;;;;;;;2.40;1.60;;;8.60;99.90;;;;;;5078075;28;20166;-84
2021/12/27 11:34:12;;;;;;;3.08;1.92;;;8.60;99.90;;;;;;5078786;28;20035;-84
2021/12/27 11:36:40;;;;;;;2.97;1.70;;;8.60;99.90;;;;;;5095983;28;20020;-84
2021/12/27 11:39:28;;;;;;;6.70;3.17;;;8.60;99.90;;;;;;5078213;28;20039;-84
2021/12/27 11:42:00;;;;;;;8.93;5.25;;;8.70;99.90;;;;;;5077842;28;20498;-84
2021/12/27 11:44:56;;;;;;;9.05;5.82;;;8.70;99.90;;;;;;5078036;28;20028;-83
2021/12/27 11:47:29;;;;;;;6.65;3.63;;;8.80;99.90;;;;;;5076430;28;20035;-83
2021/12/27 11:50:01;;;;;;;4.25;2.90;;;8.90;99.90;;;;;;5095584;28;20065;-83
2021/12/27 11:52:28;;;;;;;4.78;2.75;;;8.90;99.90;;;;;;5078118;28;20109;-84
2021/12/27 11:55:03;;;;;;;5.63;3.08;;;9.00;99.90;;;;;;5077771;28;20536;-85
2021/12/27 11:57:53;;;;;;;4.55;3.15;;;9.00;99.90;;;;;;5077919;28;20020;-86
2021/12/27 12:00:23;;;;;;;4.72;2.80;;;9.00;99.90;;;;;;5077560;28;20024;-84
2021/12/27 12:02:50;;;;;;;4.80;2.65;;;9.00;99.90;;;;;;5076582;28;20040;-86
2021/12/27 12:05:45;;;;;;;4.43;2.50;;;9.10;99.90;;;;;;5095749;28;20020;-85
2021/12/27 12:08:36;;;;;;;3.78;2.28;;;9.20;99.90;;;;;;5077502;28;20376;-85
2021/12/27 12:11:10;;;;;;;4.03;2.50;;;9.20;99.90;;;;;;5076729;28;20119;-87
2021/12/27 12:13:47;;;;;;;3.83;2.60;;;9.20;99.90;;;;;;5095627;28;20701;-84
2021/12/27 12:16:14;;;;;;;5.13;2.38;;;9.20;99.90;;;;;;5095565;28;20101;-85
2021/12/27 12:18:43;;;;;;;3.78;2.78;;;9.20;99.90;;;;;;5077190;28;20030;-85
2021/12/27 12:21:35;;;;;;;4.97;2.72;;;9.30;99.90;;;;;;5095052;28;20051;-85
2021/12/27 12:24:07;;;;;;;5.47;2.85;;;9.30;99.90;;;;;;5076874;28;20023;-85
2021/12/27 12:26:48;;;;;;;4.75;2.60;;;9.30;99.90;;;;;;5077093;28;20028;-83
2021/12/27 12:29:13;;;;;;;6.00;2.97;;;9.30;99.90;;;;;;5076999;28;20108;-83
2021/12/27 12:31:39;;;;;;;5.97;3.55;;;9.30;99.90;;;;;;5076614;28;20028;-83
2021/12/27 12:34:17;;;;;;;5.53;3.50;;;9.20;99.90;;;;;;5060696;28;20555;-85
2021/12/27 12:36:55;;;;;;;4.30;3.13;;;9.20;99.90;;;;;;5076644;28;20027;-84
2021/12/27 12:39:23;;;;;;;4.80;3.38;;;9.20;99.90;;;;;;5077345;28;20032;-84
2021/12/27 12:41:50;;;;;;;5.85;3.95;;;9.20;99.90;;;;;;5076603;28;20020;-85
2021/12/27 12:44:17;;;;;;;5.72;3.40;;;9.20;99.90;;;;;;5076992;28;20024;-84
2021/12/27 12:46:48;;;;;;;5.88;3.97;;;9.20;99.90;;;;;;5094257;28;20028;-85
2021/12/27 12:49:19;;;;;;;8.80;4.03;;;9.20;99.90;;;;;;5076986;28;20099;-85
2021/12/27 12:51:52;;;;;;;6.55;4.18;;;9.20;99.90;;;;;;5094357;28;20060;-84
2021/12/27 12:54:22;;;;;;;6.18;4.10;;;9.20;99.90;;;;;;5094720;28;20027;-83
2021/12/27 12:56:49;;;;;;;8.68;4.03;;;9.10;99.90;;;;;;5076187;28;20035;-83